createdAt,value
2018-06-05T17:18:13.696Z,43.50
2018-06-05T17:20:41.928Z,49.17
2018-06-05T17:23:10.521Z,51.27
2018-06-05T17:25:38.987Z,49.23
2018-06-05T17:28:07.530Z,46.93
2018-06-05T17:30:36.027Z,56.50
2018-06-05T17:33:04.480Z,49.30
2018-06-05T17:35:32.793Z,54.90
2018-06-05T17:38:01.593Z,49.20
2018-06-05T17:40:30.169Z,52.20
2018-06-05T17:42:58.691Z,47.47
2018-06-05T17:45:27.279Z,49.53
2018-06-05T17:47:55.795Z,55.50
2018-06-05T17:50:23.948Z,55.73
2018-06-05T17:52:52.523Z,56.40
2018-06-05T17:55:21.013Z,58.83
2018-06-05T17:57:49.574Z,58.10
2018-06-05T18:00:18.068Z,62.07
2018-06-05T18:02:46.708Z,57.83
2018-06-05T18:05:15.215Z,59.80
2018-06-05T18:07:43.801Z,60.80
2018-06-05T18:10:12.299Z,62.40
2018-06-05T18:12:40.820Z,63.77
2018-06-05T18:15:08.977Z,55.70
2018-06-05T18:17:37.197Z,61.13
2018-06-05T18:20:05.896Z,59.10
2018-06-05T18:22:34.589Z,54.07
2018-06-05T18:25:03.324Z,55.40
2018-06-05T18:27:31.947Z,53.97
2018-06-05T18:30:00.492Z,55.60
2018-06-05T18:32:28.966Z,59.30
2018-06-05T18:34:57.175Z,56.57
2018-06-05T18:37:25.918Z,48.37
2018-06-05T18:39:54.463Z,43.07
2018-06-05T18:42:23.033Z,38.10
2018-06-05T18:44:51.553Z,36.10
2018-06-05T18:47:20.118Z,44.70
2018-06-05T18:49:48.787Z,37.47
2018-06-05T18:52:18.355Z,43.40
2018-06-05T18:54:46.600Z,39.60
2018-06-05T18:57:15.904Z,45.40
2018-06-05T18:59:44.821Z,48.80
2018-06-05T19:02:13.471Z,51.03
2018-06-05T19:04:42.055Z,48.70
2018-06-05T19:07:11.679Z,43.70
2018-06-05T19:09:40.856Z,38.73
2018-06-05T19:12:09.904Z,38.07
2018-06-05T19:14:38.932Z,37.70
2018-06-05T19:17:07.222Z,40.60
2018-06-05T19:19:35.946Z,40.47
2018-06-05T19:22:06.136Z,50.43
2018-06-05T19:24:36.453Z,47.57
2018-06-05T19:27:05.464Z,43.20
2018-06-05T19:29:35.177Z,44.60
2018-06-05T19:32:04.872Z,39.63
2018-06-05T19:34:33.437Z,51.27
2018-06-05T19:37:03.407Z,48.33
2018-06-05T19:39:31.981Z,44.53
2018-06-05T19:42:00.603Z,47.70
2018-06-05T19:44:29.095Z,50.43
2018-06-05T19:46:58.367Z,42.23
2018-06-05T19:49:26.632Z,55.23
2018-06-05T19:51:55.220Z,62.90
2018-06-05T19:54:24.409Z,60.33
2018-06-05T19:56:53.837Z,71.53
2018-06-05T19:59:22.416Z,73.40
2018-06-05T20:01:51.244Z,56.27
2018-06-05T20:04:20.255Z,60.50
2018-06-05T20:06:49.313Z,62.90
2018-06-05T20:09:17.795Z,72.40
2018-06-05T20:11:49.710Z,61.47
2018-06-05T20:14:19.273Z,61.30
2018-06-05T20:16:48.906Z,57.50
2018-06-05T20:19:17.531Z,62.20
2018-06-05T20:21:46.043Z,54.00
2018-06-05T20:24:15.180Z,52.93
2018-06-05T20:26:45.250Z,56.23
2018-06-05T20:29:14.042Z,57.20
2018-06-05T20:31:42.900Z,57.03
2018-06-05T20:34:12.672Z,78.53
2018-06-05T20:36:41.315Z,74.67
2018-06-05T20:39:10.965Z,75.57
2018-06-05T20:41:39.817Z,65.27
2018-06-05T20:44:08.393Z,61.27
2018-06-05T20:46:38.629Z,68.33
2018-06-05T20:49:07.191Z,64.23
2018-06-05T20:51:35.850Z,65.97
2018-06-05T20:54:05.539Z,68.33
2018-06-05T20:56:35.123Z,68.57
2018-06-05T20:59:04.435Z,69.80
2018-06-05T21:01:34.132Z,66.83
2018-06-05T21:04:02.842Z,68.03
2018-06-05T21:06:31.493Z,79.30
2018-06-05T21:09:00.124Z,75.83
2018-06-05T21:11:28.702Z,72.10
2018-06-05T21:13:57.263Z,77.07
2018-06-05T21:16:25.432Z,76.07
2018-06-05T21:18:53.971Z,85.00
2018-06-05T21:21:22.482Z,80.00
2018-06-05T21:23:50.952Z,69.27
2018-06-05T21:26:19.417Z,74.77
2018-06-05T21:28:47.885Z,75.93
2018-06-05T21:31:16.428Z,79.00
2018-06-05T21:33:44.609Z,78.93
2018-06-05T21:36:12.801Z,72.17
2018-06-05T21:38:41.425Z,86.03
2018-06-05T21:41:09.900Z,78.90
2018-06-05T21:43:38.493Z,78.73
2018-06-05T21:46:07.028Z,81.83
2018-06-05T21:48:36.323Z,81.57
2018-06-05T21:51:04.910Z,81.10
2018-06-05T21:53:33.343Z,77.53
2018-06-05T21:56:01.911Z,83.77
2018-06-05T21:58:30.431Z,81.17
2018-06-05T22:00:58.599Z,81.13
2018-06-05T22:03:27.083Z,73.57
2018-06-05T22:05:57.015Z,80.03
2018-06-05T22:08:25.559Z,77.50
2018-06-05T22:10:54.217Z,76.80
2018-06-05T22:13:22.933Z,77.10
2018-06-05T22:15:51.720Z,78.40
2018-06-05T22:18:20.418Z,77.27
2018-06-05T22:20:48.936Z,75.90
2018-06-05T22:23:17.066Z,80.90
2018-06-05T22:25:45.622Z,80.30
2018-06-05T22:28:14.116Z,79.60
2018-06-05T22:30:43.932Z,84.30
2018-06-05T22:33:12.787Z,81.53
2018-06-05T22:35:41.746Z,79.10
2018-06-05T22:38:10.237Z,75.20
2018-06-05T22:40:39.279Z,84.37
2018-06-05T22:43:08.058Z,77.27
2018-06-05T22:45:36.857Z,77.10
2018-06-05T22:48:05.911Z,75.00
2018-06-05T22:50:34.463Z,78.37
2018-06-05T22:53:02.950Z,79.20
2018-06-05T22:55:31.427Z,83.70
2018-06-05T22:57:59.978Z,72.90
2018-06-05T23:00:32.752Z,79.20
2018-06-05T23:03:01.306Z,87.57
2018-06-05T23:05:29.463Z,78.13
2018-06-05T23:07:57.956Z,92.73
2018-06-05T23:10:26.123Z,78.67
2018-06-05T23:12:54.578Z,88.43
2018-06-05T23:15:23.084Z,95.10
2018-06-05T23:17:51.571Z,86.53
2018-06-05T23:20:20.043Z,85.40
2018-06-05T23:22:48.893Z,78.80
2018-06-05T23:25:17.739Z,88.90
2018-06-05T23:27:46.106Z,79.10
2018-06-05T23:30:14.374Z,78.20
2018-06-05T23:32:42.876Z,80.60
2018-06-05T23:35:11.203Z,70.83
2018-06-05T23:37:39.740Z,75.83
2018-06-05T23:40:08.163Z,74.67
2018-06-05T23:42:36.705Z,80.83
2018-06-05T23:45:05.059Z,80.50
2018-06-05T23:47:33.548Z,90.57
2018-06-05T23:50:02.077Z,82.67
2018-06-05T23:52:30.587Z,84.03
2018-06-05T23:54:59.419Z,82.07
2018-06-05T23:57:28.007Z,85.50
2018-06-05T23:59:56.586Z,81.77
